sensor_id;sensor_type;location;lat;lon;timestamp;temperature;humidity
60723;DHT22;46574;52.818;6.516;2024-03-22T00:00:32;10.00;99.90
60723;DHT22;46574;52.818;6.516;2024-03-22T00:02:58;10.00;99.90
60723;DHT22;46574;52.818;6.516;2024-03-22T00:05:24;10.00;99.90
60723;DHT22;46574;52.818;6.516;2024-03-22T00:07:49;10.10;99.90
60723;DHT22;46574;52.818;6.516;2024-03-22T00:10:15;10.00;99.90
60723;DHT22;46574;52.818;6.516;2024-03-22T00:12:41;10.00;99.90
60723;DHT22;46574;52.818;6.516;2024-03-22T00:15:07;10.10;99.90
60723;DHT22;46574;52.818;6.516;2024-03-22T00:17:32;10.10;99.90
60723;DHT22;46574;52.818;6.516;2024-03-22T00:19:59;10.10;99.90
60723;DHT22;46574;52.818;6.516;2024-03-22T00:22:25;10.10;99.90
60723;DHT22;46574;52.818;6.516;2024-03-22T00:24:51;10.10;99.90
60723;DHT22;46574;52.818;6.516;2024-03-22T00:27:16;10.10;99.90
60723;DHT22;46574;52.818;6.516;2024-03-22T00:29:42;10.10;99.90
60723;DHT22;46574;52.818;6.516;2024-03-22T00:32:09;10.10;99.90
60723;DHT22;46574;52.818;6.516;2024-03-22T00:34:35;10.20;99.90
60723;DHT22;46574;52.818;6.516;2024-03-22T00:37:01;10.20;99.90
60723;DHT22;46574;52.818;6.516;2024-03-22T00:39:26;10.20;99.90
60723;DHT22;46574;52.818;6.516;2024-03-22T00:41:52;10.20;99.90
60723;DHT22;46574;52.818;6.516;2024-03-22T00:44:17;10.20;99.90
60723;DHT22;46574;52.818;6.516;2024-03-22T00:46:43;10.20;99.90
60723;DHT22;46574;52.818;6.516;2024-03-22T00:49:09;10.20;99.90
60723;DHT22;46574;52.818;6.516;2024-03-22T00:51:34;10.30;99.90
60723;DHT22;46574;52.818;6.516;2024-03-22T00:54:00;10.20;99.90
60723;DHT22;46574;52.818;6.516;2024-03-22T00:56:26;10.30;99.90
60723;DHT22;46574;52.818;6.516;2024-03-22T00:58:51;10.30;99.90
60723;DHT22;46574;52.818;6.516;2024-03-22T01:01:17;10.30;99.90
60723;DHT22;46574;52.818;6.516;2024-03-22T01:03:43;10.30;99.90
60723;DHT22;46574;52.818;6.516;2024-03-22T01:06:08;10.30;99.90
60723;DHT22;46574;52.818;6.516;2024-03-22T01:08:34;10.30;99.90
60723;DHT22;46574;52.818;6.516;2024-03-22T01:11:00;10.30;99.90
60723;DHT22;46574;52.818;6.516;2024-03-22T01:13:26;10.40;99.90
60723;DHT22;46574;52.818;6.516;2024-03-22T01:15:52;10.40;99.90
60723;DHT22;46574;52.818;6.516;2024-03-22T01:18:18;10.40;99.90
60723;DHT22;46574;52.818;6.516;2024-03-22T01:20:43;10.40;99.90
60723;DHT22;46574;52.818;6.516;2024-03-22T01:23:09;10.40;99.90
60723;DHT22;46574;52.818;6.516;2024-03-22T01:25:35;10.40;99.90
60723;DHT22;46574;52.818;6.516;2024-03-22T01:28:00;10.40;99.90
60723;DHT22;46574;52.818;6.516;2024-03-22T01:30:26;10.40;99.90
60723;DHT22;46574;52.818;6.516;2024-03-22T01:32:55;10.50;99.90
60723;DHT22;46574;52.818;6.516;2024-03-22T01:35:21;10.50;99.90
60723;DHT22;46574;52.818;6.516;2024-03-22T01:37:47;10.50;99.90
60723;DHT22;46574;52.818;6.516;2024-03-22T01:40:13;10.50;99.90
60723;DHT22;46574;52.818;6.516;2024-03-22T01:42:39;10.50;99.90
60723;DHT22;46574;52.818;6.516;2024-03-22T01:45:05;10.60;99.90
60723;DHT22;46574;52.818;6.516;2024-03-22T01:47:31;10.60;99.90
60723;DHT22;46574;52.818;6.516;2024-03-22T01:49:57;10.60;99.90
60723;DHT22;46574;52.818;6.516;2024-03-22T01:52:23;10.60;99.90
60723;DHT22;46574;52.818;6.516;2024-03-22T01:54:49;10.60;99.90
60723;DHT22;46574;52.818;6.516;2024-03-22T01:57:15;10.60;99.90
60723;DHT22;46574;52.818;6.516;2024-03-22T01:59:41;10.60;99.90
60723;DHT22;46574;52.818;6.516;2024-03-22T02:02:07;10.60;99.90
60723;DHT22;46574;52.818;6.516;2024-03-22T02:04:33;10.60;99.90
60723;DHT22;46574;52.818;6.516;2024-03-22T02:06:59;10.70;99.90
60723;DHT22;46574;52.818;6.516;2024-03-22T02:09:25;10.70;99.90
60723;DHT22;46574;52.818;6.516;2024-03-22T02:11:51;10.70;99.90
60723;DHT22;46574;52.818;6.516;2024-03-22T02:14:16;10.70;99.90
60723;DHT22;46574;52.818;6.516;2024-03-22T02:16:42;10.70;99.90
60723;DHT22;46574;52.818;6.516;2024-03-22T02:19:08;10.70;99.90
60723;DHT22;46574;52.818;6.516;2024-03-22T02:21:34;10.70;99.90
60723;DHT22;46574;52.818;6.516;2024-03-22T02:24:00;10.70;99.90
60723;DHT22;46574;52.818;6.516;2024-03-22T02:26:26;10.80;99.90
60723;DHT22;46574;52.818;6.516;2024-03-22T02:28:51;10.70;99.90
60723;DHT22;46574;52.818;6.516;2024-03-22T02:31:17;10.80;99.90
60723;DHT22;46574;52.818;6.516;2024-03-22T02:33:43;10.80;99.90
60723;DHT22;46574;52.818;6.516;2024-03-22T02:36:09;10.80;99.90
60723;DHT22;46574;52.818;6.516;2024-03-22T02:38:35;10.80;99.90
60723;DHT22;46574;52.818;6.516;2024-03-22T02:41:00;10.80;99.90
60723;DHT22;46574;52.818;6.516;2024-03-22T02:43:26;10.80;99.90
60723;DHT22;46574;52.818;6.516;2024-03-22T02:45:52;10.90;99.90
60723;DHT22;46574;52.818;6.516;2024-03-22T02:48:17;10.90;99.90
60723;DHT22;46574;52.818;6.516;2024-03-22T02:50:43;11.00;99.90
60723;DHT22;46574;52.818;6.516;2024-03-22T02:53:09;11.00;99.90
60723;DHT22;46574;52.818;6.516;2024-03-22T02:55:39;11.00;99.90
60723;DHT22;46574;52.818;6.516;2024-03-22T02:58:06;11.00;99.90
60723;DHT22;46574;52.818;6.516;2024-03-22T03:00:35;11.10;99.90
60723;DHT22;46574;52.818;6.516;2024-03-22T03:03:01;11.10;99.90
60723;DHT22;46574;52.818;6.516;2024-03-22T03:05:26;11.10;99.90
60723;DHT22;46574;52.818;6.516;2024-03-22T03:07:52;11.10;99.90
60723;DHT22;46574;52.818;6.516;2024-03-22T03:10:17;11.10;99.90
60723;DHT22;46574;52.818;6.516;2024-03-22T03:12:43;11.20;99.90
60723;DHT22;46574;52.818;6.516;2024-03-22T03:15:09;11.10;99.90
60723;DHT22;46574;52.818;6.516;2024-03-22T03:17:34;11.10;99.90
60723;DHT22;46574;52.818;6.516;2024-03-22T03:20:00;11.20;99.90
60723;DHT22;46574;52.818;6.516;2024-03-22T03:22:26;11.20;99.90
60723;DHT22;46574;52.818;6.516;2024-03-22T03:24:52;11.20;99.90
60723;DHT22;46574;52.818;6.516;2024-03-22T03:27:17;11.20;99.90
60723;DHT22;46574;52.818;6.516;2024-03-22T03:29:43;11.20;99.90
60723;DHT22;46574;52.818;6.516;2024-03-22T03:32:08;11.20;99.90
60723;DHT22;46574;52.818;6.516;2024-03-22T03:34:34;11.20;99.90
60723;DHT22;46574;52.818;6.516;2024-03-22T03:37:00;11.20;99.90
60723;DHT22;46574;52.818;6.516;2024-03-22T03:39:27;11.20;99.90
60723;DHT22;46574;52.818;6.516;2024-03-22T03:41:52;11.20;99.90
60723;DHT22;46574;52.818;6.516;2024-03-22T03:44:18;11.20;99.90
60723;DHT22;46574;52.818;6.516;2024-03-22T03:46:44;11.20;99.90
60723;DHT22;46574;52.818;6.516;2024-03-22T03:49:09;11.20;99.90
60723;DHT22;46574;52.818;6.516;2024-03-22T03:51:35;11.10;99.90
60723;DHT22;46574;52.818;6.516;2024-03-22T03:54:01;11.20;99.90
60723;DHT22;46574;52.818;6.516;2024-03-22T03:56:27;11.10;99.90
60723;DHT22;46574;52.818;6.516;2024-03-22T03:58:52;11.10;99.90
60723;DHT22;46574;52.818;6.516;2024-03-22T04:01:19;11.10;99.90
60723;DHT22;46574;52.818;6.516;2024-03-22T04:03:45;11.10;99.90
60723;DHT22;46574;52.818;6.516;2024-03-22T04:06:11;11.10;99.90
60723;DHT22;46574;52.818;6.516;2024-03-22T04:08:36;11.10;99.90
60723;DHT22;46574;52.818;6.516;2024-03-22T04:11:02;11.10;99.90
60723;DHT22;46574;52.818;6.516;2024-03-22T04:13:29;11.10;99.90
60723;DHT22;46574;52.818;6.516;2024-03-22T04:15:59;11.10;99.90
60723;DHT22;46574;52.818;6.516;2024-03-22T04:18:25;11.10;99.90
60723;DHT22;46574;52.818;6.516;2024-03-22T04:20:58;11.10;99.90
60723;DHT22;46574;52.818;6.516;2024-03-22T04:23:25;11.10;99.90
60723;DHT22;46574;52.818;6.516;2024-03-22T04:25:58;11.10;99.90
60723;DHT22;46574;52.818;6.516;2024-03-22T04:28:24;11.10;99.90
60723;DHT22;46574;52.818;6.516;2024-03-22T04:31:00;11.10;99.90
60723;DHT22;46574;52.818;6.516;2024-03-22T04:33:29;11.10;99.90
60723;DHT22;46574;52.818;6.516;2024-03-22T04:35:56;11.10;99.90
60723;DHT22;46574;52.818;6.516;2024-03-22T04:38:22;11.10;99.90
60723;DHT22;46574;52.818;6.516;2024-03-22T04:40:48;11.20;99.90
60723;DHT22;46574;52.818;6.516;2024-03-22T04:43:15;11.10;99.90
60723;DHT22;46574;52.818;6.516;2024-03-22T04:45:42;11.10;99.90
60723;DHT22;46574;52.818;6.516;2024-03-22T04:48:08;11.10;99.90
60723;DHT22;46574;52.818;6.516;2024-03-22T04:50:34;11.10;99.90
60723;DHT22;46574;52.818;6.516;2024-03-22T04:52:59;11.10;99.90
60723;DHT22;46574;52.818;6.516;2024-03-22T04:55:25;11.10;99.90
60723;DHT22;46574;52.818;6.516;2024-03-22T04:57:52;11.10;99.90
60723;DHT22;46574;52.818;6.516;2024-03-22T05:00:18;11.10;99.90
60723;DHT22;46574;52.818;6.516;2024-03-22T05:02:44;11.10;99.90
60723;DHT22;46574;52.818;6.516;2024-03-22T05:05:09;11.10;99.90
60723;DHT22;46574;52.818;6.516;2024-03-22T05:07:35;11.10;99.90
60723;DHT22;46574;52.818;6.516;2024-03-22T05:10:01;11.10;99.90
60723;DHT22;46574;52.818;6.516;2024-03-22T05:12:27;11.10;99.90
60723;DHT22;46574;52.818;6.516;2024-03-22T05:14:52;11.10;99.90
60723;DHT22;46574;52.818;6.516;2024-03-22T05:17:18;11.10;99.90
60723;DHT22;46574;52.818;6.516;2024-03-22T05:19:44;11.10;99.90
60723;DHT22;46574;52.818;6.516;2024-03-22T05:22:09;11.10;99.90
60723;DHT22;46574;52.818;6.516;2024-03-22T05:24:35;11.10;99.90
60723;DHT22;46574;52.818;6.516;2024-03-22T05:27:00;11.10;99.90
60723;DHT22;46574;52.818;6.516;2024-03-22T05:29:26;11.10;99.90
60723;DHT22;46574;52.818;6.516;2024-03-22T05:31:52;11.10;99.90
60723;DHT22;46574;52.818;6.516;2024-03-22T05:34:18;11.10;99.90
60723;DHT22;46574;52.818;6.516;2024-03-22T05:36:46;11.10;99.90
60723;DHT22;46574;52.818;6.516;2024-03-22T05:39:12;11.10;99.90
60723;DHT22;46574;52.818;6.516;2024-03-22T05:41:38;11.00;99.90
60723;DHT22;46574;52.818;6.516;2024-03-22T05:44:04;11.00;99.90
60723;DHT22;46574;52.818;6.516;2024-03-22T05:46:30;11.00;99.90
60723;DHT22;46574;52.818;6.516;2024-03-22T05:48:57;11.00;99.90
60723;DHT22;46574;52.818;6.516;2024-03-22T05:51:24;10.90;99.90
60723;DHT22;46574;52.818;6.516;2024-03-22T05:53:50;10.90;99.90
60723;DHT22;46574;52.818;6.516;2024-03-22T05:56:15;10.90;99.90
60723;DHT22;46574;52.818;6.516;2024-03-22T05:58:41;10.90;99.90
60723;DHT22;46574;52.818;6.516;2024-03-22T06:01:07;10.80;99.90
60723;DHT22;46574;52.818;6.516;2024-03-22T06:03:32;10.80;99.90
60723;DHT22;46574;52.818;6.516;2024-03-22T06:05:59;10.80;99.90
60723;DHT22;46574;52.818;6.516;2024-03-22T06:08:28;10.80;99.90
60723;DHT22;46574;52.818;6.516;2024-03-22T06:10:54;10.80;99.90
60723;DHT22;46574;52.818;6.516;2024-03-22T06:13:20;10.70;99.90
60723;DHT22;46574;52.818;6.516;2024-03-22T06:15:48;10.80;99.90
60723;DHT22;46574;52.818;6.516;2024-03-22T06:18:15;10.80;99.90
60723;DHT22;46574;52.818;6.516;2024-03-22T06:20:41;10.70;99.90
60723;DHT22;46574;52.818;6.516;2024-03-22T06:23:08;10.70;99.90
60723;DHT22;46574;52.818;6.516;2024-03-22T06:25:34;10.70;99.90
60723;DHT22;46574;52.818;6.516;2024-03-22T06:27:59;10.70;99.90
60723;DHT22;46574;52.818;6.516;2024-03-22T06:30:25;10.70;99.90
60723;DHT22;46574;52.818;6.516;2024-03-22T06:32:51;10.70;99.90
60723;DHT22;46574;52.818;6.516;2024-03-22T06:35:17;10.70;99.90
60723;DHT22;46574;52.818;6.516;2024-03-22T06:37:43;10.70;99.90
60723;DHT22;46574;52.818;6.516;2024-03-22T06:40:09;10.70;99.90
60723;DHT22;46574;52.818;6.516;2024-03-22T06:42:35;10.70;99.90
60723;DHT22;46574;52.818;6.516;2024-03-22T06:45:01;10.70;99.90
60723;DHT22;46574;52.818;6.516;2024-03-22T06:47:27;10.70;99.90
60723;DHT22;46574;52.818;6.516;2024-03-22T06:49:53;10.70;99.90
60723;DHT22;46574;52.818;6.516;2024-03-22T06:52:19;10.70;99.90
60723;DHT22;46574;52.818;6.516;2024-03-22T06:54:46;10.70;99.90
60723;DHT22;46574;52.818;6.516;2024-03-22T06:57:11;10.70;99.90
60723;DHT22;46574;52.818;6.516;2024-03-22T06:59:37;10.70;99.90
60723;DHT22;46574;52.818;6.516;2024-03-22T07:02:03;10.70;99.90
60723;DHT22;46574;52.818;6.516;2024-03-22T07:04:29;10.70;99.90
60723;DHT22;46574;52.818;6.516;2024-03-22T07:06:54;10.80;99.90
60723;DHT22;46574;52.818;6.516;2024-03-22T07:09:20;10.80;99.90
60723;DHT22;46574;52.818;6.516;2024-03-22T07:11:46;10.80;99.90
60723;DHT22;46574;52.818;6.516;2024-03-22T07:14:12;10.80;99.90
60723;DHT22;46574;52.818;6.516;2024-03-22T07:16:38;10.80;99.90
60723;DHT22;46574;52.818;6.516;2024-03-22T07:19:03;10.80;99.90
60723;DHT22;46574;52.818;6.516;2024-03-22T07:21:30;10.80;99.90
60723;DHT22;46574;52.818;6.516;2024-03-22T07:23:56;10.80;99.90
60723;DHT22;46574;52.818;6.516;2024-03-22T07:26:22;10.80;99.90
60723;DHT22;46574;52.818;6.516;2024-03-22T07:28:47;10.80;99.90
60723;DHT22;46574;52.818;6.516;2024-03-22T07:31:13;10.80;99.90
60723;DHT22;46574;52.818;6.516;2024-03-22T07:33:39;10.80;99.90
60723;DHT22;46574;52.818;6.516;2024-03-22T07:36:05;10.80;99.90
60723;DHT22;46574;52.818;6.516;2024-03-22T07:38:31;10.80;99.90
60723;DHT22;46574;52.818;6.516;2024-03-22T07:40:57;10.80;99.90
60723;DHT22;46574;52.818;6.516;2024-03-22T07:43:23;10.80;99.90
60723;DHT22;46574;52.818;6.516;2024-03-22T07:45:48;10.80;99.90
60723;DHT22;46574;52.818;6.516;2024-03-22T07:48:15;10.80;99.90
60723;DHT22;46574;52.818;6.516;2024-03-22T07:50:41;10.80;99.90
60723;DHT22;46574;52.818;6.516;2024-03-22T07:53:07;10.80;99.90
60723;DHT22;46574;52.818;6.516;2024-03-22T07:55:32;10.80;99.90
60723;DHT22;46574;52.818;6.516;2024-03-22T07:57:58;10.90;99.90
60723;DHT22;46574;52.818;6.516;2024-03-22T08:00:24;10.90;99.90
60723;DHT22;46574;52.818;6.516;2024-03-22T08:02:53;10.90;99.90
60723;DHT22;46574;52.818;6.516;2024-03-22T08:05:18;10.90;99.90
60723;DHT22;46574;52.818;6.516;2024-03-22T08:07:45;10.90;99.90
60723;DHT22;46574;52.818;6.516;2024-03-22T08:10:10;10.90;99.90
60723;DHT22;46574;52.818;6.516;2024-03-22T08:12:36;10.90;99.90
60723;DHT22;46574;52.818;6.516;2024-03-22T08:15:02;10.90;99.90
60723;DHT22;46574;52.818;6.516;2024-03-22T08:17:28;10.90;99.90
60723;DHT22;46574;52.818;6.516;2024-03-22T08:19:54;10.90;99.90
60723;DHT22;46574;52.818;6.516;2024-03-22T08:22:19;10.90;99.90
60723;DHT22;46574;52.818;6.516;2024-03-22T08:24:45;11.00;99.90
60723;DHT22;46574;52.818;6.516;2024-03-22T08:27:11;10.90;99.90
60723;DHT22;46574;52.818;6.516;2024-03-22T08:29:37;10.90;99.90
60723;DHT22;46574;52.818;6.516;2024-03-22T08:32:04;10.90;99.90
60723;DHT22;46574;52.818;6.516;2024-03-22T08:34:30;10.90;99.90
60723;DHT22;46574;52.818;6.516;2024-03-22T08:36:58;11.00;99.90
60723;DHT22;46574;52.818;6.516;2024-03-22T08:39:24;10.90;99.90
60723;DHT22;46574;52.818;6.516;2024-03-22T08:41:51;10.90;99.90
60723;DHT22;46574;52.818;6.516;2024-03-22T08:44:19;10.90;99.90
60723;DHT22;46574;52.818;6.516;2024-03-22T08:46:45;10.80;99.90
60723;DHT22;46574;52.818;6.516;2024-03-22T08:49:11;10.80;99.90
60723;DHT22;46574;52.818;6.516;2024-03-22T08:51:37;10.80;99.90
60723;DHT22;46574;52.818;6.516;2024-03-22T08:54:03;10.80;99.90
60723;DHT22;46574;52.818;6.516;2024-03-22T08:56:29;10.80;99.90
60723;DHT22;46574;52.818;6.516;2024-03-22T08:58:55;10.70;99.90
60723;DHT22;46574;52.818;6.516;2024-03-22T09:01:21;10.70;99.90
60723;DHT22;46574;52.818;6.516;2024-03-22T09:03:48;10.70;99.90
60723;DHT22;46574;52.818;6.516;2024-03-22T09:06:14;10.70;99.90
60723;DHT22;46574;52.818;6.516;2024-03-22T09:08:40;10.70;99.90
60723;DHT22;46574;52.818;6.516;2024-03-22T09:11:06;10.60;99.90
60723;DHT22;46574;52.818;6.516;2024-03-22T09:13:31;10.60;99.90
60723;DHT22;46574;52.818;6.516;2024-03-22T09:16:00;10.60;99.90
60723;DHT22;46574;52.818;6.516;2024-03-22T09:18:26;10.60;99.90
60723;DHT22;46574;52.818;6.516;2024-03-22T09:20:53;10.60;99.90
60723;DHT22;46574;52.818;6.516;2024-03-22T09:23:19;10.50;99.90
60723;DHT22;46574;52.818;6.516;2024-03-22T09:25:46;10.60;99.90
60723;DHT22;46574;52.818;6.516;2024-03-22T09:28:12;10.50;99.90
60723;DHT22;46574;52.818;6.516;2024-03-22T09:30:39;10.60;99.90
60723;DHT22;46574;52.818;6.516;2024-03-22T09:33:05;10.60;99.90
60723;DHT22;46574;52.818;6.516;2024-03-22T09:35:35;10.60;99.90
60723;DHT22;46574;52.818;6.516;2024-03-22T09:38:01;10.60;99.90
60723;DHT22;46574;52.818;6.516;2024-03-22T09:40:29;10.60;99.90
60723;DHT22;46574;52.818;6.516;2024-03-22T09:42:59;10.60;99.90
60723;DHT22;46574;52.818;6.516;2024-03-22T09:45:27;10.60;99.90
60723;DHT22;46574;52.818;6.516;2024-03-22T09:47:53;10.70;99.90
60723;DHT22;46574;52.818;6.516;2024-03-22T09:50:21;10.70;99.90
60723;DHT22;46574;52.818;6.516;2024-03-22T09:52:47;10.70;99.90
60723;DHT22;46574;52.818;6.516;2024-03-22T09:55:14;10.70;99.90
60723;DHT22;46574;52.818;6.516;2024-03-22T09:57:40;10.60;99.90
60723;DHT22;46574;52.818;6.516;2024-03-22T10:00:08;10.70;99.90
60723;DHT22;46574;52.818;6.516;2024-03-22T10:02:34;10.70;99.90
60723;DHT22;46574;52.818;6.516;2024-03-22T10:05:01;10.70;99.90
60723;DHT22;46574;52.818;6.516;2024-03-22T10:07:29;10.80;99.90
60723;DHT22;46574;52.818;6.516;2024-03-22T10:09:58;10.70;99.90
60723;DHT22;46574;52.818;6.516;2024-03-22T10:12:24;10.70;99.90
60723;DHT22;46574;52.818;6.516;2024-03-22T10:14:53;10.70;99.90
60723;DHT22;46574;52.818;6.516;2024-03-22T10:17:19;10.80;99.90
60723;DHT22;46574;52.818;6.516;2024-03-22T10:19:45;10.80;99.90
60723;DHT22;46574;52.818;6.516;2024-03-22T10:22:10;10.80;99.90
60723;DHT22;46574;52.818;6.516;2024-03-22T10:24:36;10.80;99.90
60723;DHT22;46574;52.818;6.516;2024-03-22T10:27:02;10.80;99.90
60723;DHT22;46574;52.818;6.516;2024-03-22T10:29:28;10.80;99.90
60723;DHT22;46574;52.818;6.516;2024-03-22T10:31:55;10.80;99.90
60723;DHT22;46574;52.818;6.516;2024-03-22T10:34:24;10.80;99.90
60723;DHT22;46574;52.818;6.516;2024-03-22T10:36:50;10.80;99.90
60723;DHT22;46574;52.818;6.516;2024-03-22T10:39:19;10.90;99.90
60723;DHT22;46574;52.818;6.516;2024-03-22T10:41:48;10.90;99.90
60723;DHT22;46574;52.818;6.516;2024-03-22T10:44:14;10.90;99.90
60723;DHT22;46574;52.818;6.516;2024-03-22T10:46:45;10.90;99.90
60723;DHT22;46574;52.818;6.516;2024-03-22T10:49:18;11.00;99.90
60723;DHT22;46574;52.818;6.516;2024-03-22T10:51:50;11.00;99.90
60723;DHT22;46574;52.818;6.516;2024-03-22T10:54:22;11.00;99.90
60723;DHT22;46574;52.818;6.516;2024-03-22T10:56:49;10.90;99.90
60723;DHT22;46574;52.818;6.516;2024-03-22T10:59:19;10.90;99.90
60723;DHT22;46574;52.818;6.516;2024-03-22T11:01:49;10.90;99.90
60723;DHT22;46574;52.818;6.516;2024-03-22T11:04:20;10.90;99.90
60723;DHT22;46574;52.818;6.516;2024-03-22T11:06:51;11.00;99.90
60723;DHT22;46574;52.818;6.516;2024-03-22T11:09:25;11.00;99.90
60723;DHT22;46574;52.818;6.516;2024-03-22T11:11:55;11.00;99.90
60723;DHT22;46574;52.818;6.516;2024-03-22T11:14:22;11.10;99.90
60723;DHT22;46574;52.818;6.516;2024-03-22T11:16:50;11.10;99.90
60723;DHT22;46574;52.818;6.516;2024-03-22T11:19:16;11.20;99.90
60723;DHT22;46574;52.818;6.516;2024-03-22T11:21:42;11.30;99.90
60723;DHT22;46574;52.818;6.516;2024-03-22T11:24:08;11.20;99.90
60723;DHT22;46574;52.818;6.516;2024-03-22T11:26:34;11.20;99.90
60723;DHT22;46574;52.818;6.516;2024-03-22T11:29:00;11.20;99.90
60723;DHT22;46574;52.818;6.516;2024-03-22T11:31:26;11.20;99.90
60723;DHT22;46574;52.818;6.516;2024-03-22T11:33:56;11.30;99.90
60723;DHT22;46574;52.818;6.516;2024-03-22T11:36:23;11.20;99.90
60723;DHT22;46574;52.818;6.516;2024-03-22T11:38:49;11.30;99.90
60723;DHT22;46574;52.818;6.516;2024-03-22T11:41:22;11.30;99.90
60723;DHT22;46574;52.818;6.516;2024-03-22T11:43:49;11.40;99.90
60723;DHT22;46574;52.818;6.516;2024-03-22T11:46:16;11.30;99.90
60723;DHT22;46574;52.818;6.516;2024-03-22T11:48:42;11.40;99.90
60723;DHT22;46574;52.818;6.516;2024-03-22T11:51:08;11.30;99.90
60723;DHT22;46574;52.818;6.516;2024-03-22T11:53:35;11.10;99.90
60723;DHT22;46574;52.818;6.516;2024-03-22T11:56:02;11.20;99.90
60723;DHT22;46574;52.818;6.516;2024-03-22T11:58:29;11.10;99.90
60723;DHT22;46574;52.818;6.516;2024-03-22T12:00:56;11.10;99.90
60723;DHT22;46574;52.818;6.516;2024-03-22T12:03:22;11.10;99.90
60723;DHT22;46574;52.818;6.516;2024-03-22T12:05:48;11.00;99.90
60723;DHT22;46574;52.818;6.516;2024-03-22T12:08:17;11.00;99.90
60723;DHT22;46574;52.818;6.516;2024-03-22T12:10:43;11.00;99.90
60723;DHT22;46574;52.818;6.516;2024-03-22T12:13:09;11.00;99.90
60723;DHT22;46574;52.818;6.516;2024-03-22T12:15:35;11.00;99.90
60723;DHT22;46574;52.818;6.516;2024-03-22T12:18:02;11.00;99.90
60723;DHT22;46574;52.818;6.516;2024-03-22T12:20:27;11.10;99.90
60723;DHT22;46574;52.818;6.516;2024-03-22T12:22:53;11.10;99.90
60723;DHT22;46574;52.818;6.516;2024-03-22T12:25:18;11.10;99.90
60723;DHT22;46574;52.818;6.516;2024-03-22T12:27:47;11.10;99.90
60723;DHT22;46574;52.818;6.516;2024-03-22T12:30:12;11.00;99.90
60723;DHT22;46574;52.818;6.516;2024-03-22T12:32:38;11.10;99.90
60723;DHT22;46574;52.818;6.516;2024-03-22T12:35:04;11.20;99.90
60723;DHT22;46574;52.818;6.516;2024-03-22T12:37:30;11.20;99.90
60723;DHT22;46574;52.818;6.516;2024-03-22T12:39:56;11.10;99.90
60723;DHT22;46574;52.818;6.516;2024-03-22T12:42:21;11.10;99.90
60723;DHT22;46574;52.818;6.516;2024-03-22T12:44:48;11.00;99.90
60723;DHT22;46574;52.818;6.516;2024-03-22T12:47:14;11.00;99.90
60723;DHT22;46574;52.818;6.516;2024-03-22T12:49:39;10.70;99.90
60723;DHT22;46574;52.818;6.516;2024-03-22T12:52:06;10.50;99.90
60723;DHT22;46574;52.818;6.516;2024-03-22T12:54:32;10.50;99.90
60723;DHT22;46574;52.818;6.516;2024-03-22T12:56:58;10.60;99.90
60723;DHT22;46574;52.818;6.516;2024-03-22T12:59:23;10.50;99.90
60723;DHT22;46574;52.818;6.516;2024-03-22T13:01:49;10.50;99.90
60723;DHT22;46574;52.818;6.516;2024-03-22T13:04:15;10.50;99.90
60723;DHT22;46574;52.818;6.516;2024-03-22T13:06:40;10.40;99.90
60723;DHT22;46574;52.818;6.516;2024-03-22T13:09:06;10.30;99.90
60723;DHT22;46574;52.818;6.516;2024-03-22T13:11:35;10.30;99.90
60723;DHT22;46574;52.818;6.516;2024-03-22T13:14:01;10.30;99.90
60723;DHT22;46574;52.818;6.516;2024-03-22T13:16:26;10.30;99.90
60723;DHT22;46574;52.818;6.516;2024-03-22T13:18:53;10.30;99.90
60723;DHT22;46574;52.818;6.516;2024-03-22T13:21:18;10.40;99.90
60723;DHT22;46574;52.818;6.516;2024-03-22T13:23:45;10.40;99.90
60723;DHT22;46574;52.818;6.516;2024-03-22T13:26:10;10.40;99.90
60723;DHT22;46574;52.818;6.516;2024-03-22T13:28:36;10.40;99.90
60723;DHT22;46574;52.818;6.516;2024-03-22T13:31:03;10.40;99.90
60723;DHT22;46574;52.818;6.516;2024-03-22T13:33:32;10.50;99.90
60723;DHT22;46574;52.818;6.516;2024-03-22T13:35:58;10.50;99.90
60723;DHT22;46574;52.818;6.516;2024-03-22T13:38:24;10.40;99.90
60723;DHT22;46574;52.818;6.516;2024-03-22T13:40:57;10.40;99.90
60723;DHT22;46574;52.818;6.516;2024-03-22T13:43:25;10.40;99.90
60723;DHT22;46574;52.818;6.516;2024-03-22T13:45:51;10.30;99.90
60723;DHT22;46574;52.818;6.516;2024-03-22T13:48:20;10.30;99.90
60723;DHT22;46574;52.818;6.516;2024-03-22T13:50:52;10.40;99.90
60723;DHT22;46574;52.818;6.516;2024-03-22T13:53:18;10.40;99.90
60723;DHT22;46574;52.818;6.516;2024-03-22T13:55:44;10.50;99.90
60723;DHT22;46574;52.818;6.516;2024-03-22T13:58:11;10.60;99.90
60723;DHT22;46574;52.818;6.516;2024-03-22T14:00:37;10.60;99.90
60723;DHT22;46574;52.818;6.516;2024-03-22T14:03:04;10.70;99.90
60723;DHT22;46574;52.818;6.516;2024-03-22T14:05:30;10.70;99.90
60723;DHT22;46574;52.818;6.516;2024-03-22T14:07:57;10.70;99.90
60723;DHT22;46574;52.818;6.516;2024-03-22T14:10:23;10.70;99.90
60723;DHT22;46574;52.818;6.516;2024-03-22T14:12:50;10.70;99.90
60723;DHT22;46574;52.818;6.516;2024-03-22T14:15:16;10.80;99.90
60723;DHT22;46574;52.818;6.516;2024-03-22T14:17:42;10.80;99.90
60723;DHT22;46574;52.818;6.516;2024-03-22T14:20:07;10.80;99.90
60723;DHT22;46574;52.818;6.516;2024-03-22T14:22:40;10.80;99.90
60723;DHT22;46574;52.818;6.516;2024-03-22T14:25:09;10.80;99.90
60723;DHT22;46574;52.818;6.516;2024-03-22T14:27:36;10.80;99.90
60723;DHT22;46574;52.818;6.516;2024-03-22T14:30:03;10.80;99.90
60723;DHT22;46574;52.818;6.516;2024-03-22T14:32:35;10.80;99.90
60723;DHT22;46574;52.818;6.516;2024-03-22T14:35:01;10.80;99.90
60723;DHT22;46574;52.818;6.516;2024-03-22T14:37:27;10.80;99.90
60723;DHT22;46574;52.818;6.516;2024-03-22T14:39:53;10.70;99.90
60723;DHT22;46574;52.818;6.516;2024-03-22T14:42:18;10.60;99.90
60723;DHT22;46574;52.818;6.516;2024-03-22T14:44:44;10.60;99.90
60723;DHT22;46574;52.818;6.516;2024-03-22T14:47:10;10.60;99.90
60723;DHT22;46574;52.818;6.516;2024-03-22T14:49:35;10.60;99.90
60723;DHT22;46574;52.818;6.516;2024-03-22T14:52:01;10.60;99.90
60723;DHT22;46574;52.818;6.516;2024-03-22T14:54:27;10.70;99.90
60723;DHT22;46574;52.818;6.516;2024-03-22T14:56:52;10.70;99.90
60723;DHT22;46574;52.818;6.516;2024-03-22T14:59:20;10.70;99.90
60723;DHT22;46574;52.818;6.516;2024-03-22T15:01:46;10.70;99.90
60723;DHT22;46574;52.818;6.516;2024-03-22T15:04:12;10.80;99.90
60723;DHT22;46574;52.818;6.516;2024-03-22T15:06:38;10.80;99.90
60723;DHT22;46574;52.818;6.516;2024-03-22T15:09:04;10.70;99.90
60723;DHT22;46574;52.818;6.516;2024-03-22T15:11:35;10.70;99.90
60723;DHT22;46574;52.818;6.516;2024-03-22T15:14:01;10.60;99.90
60723;DHT22;46574;52.818;6.516;2024-03-22T15:16:28;10.50;99.90
60723;DHT22;46574;52.818;6.516;2024-03-22T15:18:53;10.50;99.90
60723;DHT22;46574;52.818;6.516;2024-03-22T15:21:19;10.50;99.90
60723;DHT22;46574;52.818;6.516;2024-03-22T15:23:46;10.40;99.90